Boone County Airport Harrison US
ICAO: KHRO
IATA: HRO
Category: Medium
Scheduled Services: Yes

Elevation: 1365 ft
TransAlt. 18000 ft.

Airport Communications:
ASOS:121.125
MEMPHIS CNTR:126.85
JONESBORO RDO:122.45
CTAF/UNICOM:123

KHRO Zoom In..

If you have problems with the map follow the link
https://www.worldairports.se/pages/airport.php?
ICAO=KHRO

Runways:

(A) RW 18 length 6161 ft width 150 ft
---- / hdg 182

(B) RW 36 length 6161 ft width 150 ft
ILS 111.70 / hdg 2

Location; KHRO
Day. 28 / Time. 13.53 Zulu
* Altimeter: 30.04
* Temperature: 02° c. 35.6°f.
* Wind from: 080° Speed 06 kn.
Dewpoint: 01° c.
Visibility: 1/4 Statute Miles.
Conditions: Fog.

KHRO 281353Z AUTO 08006KT 1/4SM FG VV002 02/01 A3004 RMK AO2 SLP174 T00170006


Wind From 080°
Speed 06 kn.

 
 
jpsmedia worldairports.se 2020   terms of use